createdAt,value
2019-03-24T00:00:29.585Z,6.16
2019-03-24T00:01:40.473Z,6.16
2019-03-24T00:02:30.620Z,6.13
2019-03-24T00:03:29.528Z,6.13
2019-03-24T00:04:29.541Z,6.05
2019-03-24T00:05:29.562Z,6.12
2019-03-24T00:06:29.517Z,6.12
2019-03-24T00:07:29.486Z,6.12
2019-03-24T00:08:29.520Z,6.09
2019-03-24T00:09:29.462Z,6.11
2019-03-24T00:10:29.470Z,6.15
2019-03-24T00:11:29.439Z,6.19
2019-03-24T00:12:29.445Z,6.13
2019-03-24T00:13:29.424Z,6.15
2019-03-24T00:14:29.445Z,6.16
2019-03-24T00:15:29.405Z,6.11
2019-03-24T00:16:29.385Z,6.25
2019-03-24T00:17:29.372Z,6.19
2019-03-24T00:18:29.376Z,6.13
2019-03-24T00:19:29.354Z,6.12
2019-03-24T00:20:29.375Z,6.12
2019-03-24T00:21:29.330Z,6.15
2019-03-24T00:22:29.318Z,6.11
2019-03-24T00:23:29.310Z,6.09
2019-03-24T00:24:29.315Z,6.13
2019-03-24T00:25:29.289Z,6.16
2019-03-24T00:26:29.306Z,6.12
2019-03-24T00:27:29.269Z,6.16
2019-03-24T00:28:29.261Z,6.19
2019-03-24T00:29:29.244Z,6.12
2019-03-24T00:30:29.245Z,6.11
2019-03-24T00:31:29.220Z,6.15
2019-03-24T00:32:29.245Z,6.16
2019-03-24T00:33:29.198Z,6.13
2019-03-24T00:34:29.191Z,6.13
2019-03-24T00:35:29.176Z,6.15
2019-03-24T00:36:29.188Z,6.18
2019-03-24T00:37:29.152Z,6.11
2019-03-24T00:38:29.195Z,6.15
2019-03-24T00:39:29.134Z,6.13
2019-03-24T00:40:29.129Z,6.18
2019-03-24T00:41:29.110Z,6.24
2019-03-24T00:42:29.112Z,6.19
2019-03-24T00:43:29.088Z,6.27
2019-03-24T00:44:29.107Z,6.19
2019-03-24T00:45:36.753Z,6.28
2019-03-24T00:46:30.054Z,6.18
2019-03-24T00:47:29.044Z,6.18
2019-03-24T00:48:29.048Z,6.28
2019-03-24T00:49:29.029Z,6.27
2019-03-24T00:50:29.069Z,6.18
2019-03-24T00:51:29.016Z,6.32
2019-03-24T00:52:28.989Z,6.21
2019-03-24T00:53:28.980Z,6.25
2019-03-24T00:54:28.970Z,6.35
2019-03-24T00:55:28.966Z,6.37
2019-03-24T00:56:29.247Z,6.28
2019-03-24T00:57:28.950Z,6.30
2019-03-24T00:58:28.925Z,6.35
2019-03-24T00:59:28.912Z,6.40
2019-03-24T01:00:28.900Z,6.35
2019-03-24T01:01:28.892Z,6.45
2019-03-24T01:02:28.910Z,6.52
2019-03-24T01:03:28.888Z,6.49
2019-03-24T01:04:28.856Z,6.35
2019-03-24T01:05:28.847Z,6.49
2019-03-24T01:06:28.835Z,6.49
2019-03-24T01:07:28.823Z,6.49
2019-03-24T01:08:28.848Z,6.50
2019-03-24T01:09:28.814Z,6.52
2019-03-24T01:10:28.794Z,6.49
2019-03-24T01:11:28.787Z,6.46
2019-03-24T01:12:28.770Z,6.50
2019-03-24T01:13:28.764Z,6.55
2019-03-24T01:14:28.935Z,6.60
2019-03-24T01:15:28.745Z,6.61
2019-03-24T01:16:28.725Z,6.63
2019-03-24T01:17:28.721Z,6.68
2019-03-24T01:18:28.705Z,6.63
2019-03-24T01:19:28.692Z,6.57
2019-03-24T01:20:28.711Z,6.60
2019-03-24T01:21:28.688Z,6.64
2019-03-24T01:22:28.660Z,6.64
2019-03-24T01:23:28.652Z,6.63
2019-03-24T01:24:28.639Z,6.70
2019-03-24T01:25:28.627Z,6.63
2019-03-24T01:26:28.822Z,6.61
2019-03-24T01:27:28.622Z,6.75
2019-03-24T01:28:28.596Z,6.65
2019-03-24T01:29:28.582Z,6.74
2019-03-24T01:30:28.572Z,6.73
2019-03-24T01:31:28.560Z,6.78
2019-03-24T01:32:28.821Z,6.70
2019-03-24T01:33:28.549Z,6.75
2019-03-24T01:34:28.531Z,6.82
2019-03-24T01:35:28.522Z,6.75
2019-03-24T01:36:28.511Z,6.79
2019-03-24T01:37:28.494Z,6.82
2019-03-24T01:38:28.514Z,6.75
2019-03-24T01:39:28.497Z,6.82
2019-03-24T01:40:28.464Z,6.78
2019-03-24T01:41:28.450Z,6.92
2019-03-24T01:42:28.440Z,6.81
2019-03-24T01:43:28.428Z,6.82
2019-03-24T01:44:37.212Z,6.89
2019-03-24T01:45:35.978Z,6.89
2019-03-24T01:46:28.397Z,6.83
2019-03-24T01:47:28.383Z,6.89
2019-03-24T01:48:28.379Z,6.82
2019-03-24T01:49:28.427Z,6.86
2019-03-24T01:50:28.500Z,6.89
2019-03-24T01:51:28.340Z,6.88
2019-03-24T01:52:28.335Z,6.86
2019-03-24T01:53:28.318Z,6.89
2019-03-24T01:54:28.306Z,6.88
2019-03-24T01:55:28.326Z,6.89
2019-03-24T01:56:28.313Z,6.86
2019-03-24T01:57:28.274Z,6.99
2019-03-24T01:58:28.268Z,6.88
2019-03-24T01:59:28.254Z,6.83
2019-03-24T02:00:28.262Z,6.99
2019-03-24T02:01:28.229Z,6.92
2019-03-24T02:02:28.273Z,7.00
2019-03-24T02:03:28.209Z,6.99
2019-03-24T02:04:28.206Z,6.99
2019-03-24T02:05:28.187Z,6.93
2019-03-24T02:06:28.183Z,6.97
2019-03-24T02:07:28.163Z,6.97
2019-03-24T02:08:28.205Z,7.01
2019-03-24T02:09:28.142Z,6.97
2019-03-24T02:10:28.138Z,7.00
2019-03-24T02:11:28.119Z,6.97
2019-03-24T02:12:28.125Z,7.03
2019-03-24T02:13:28.106Z,7.03
2019-03-24T02:14:28.115Z,7.04
2019-03-24T02:15:28.094Z,6.97
2019-03-24T02:16:28.066Z,7.01
2019-03-24T02:17:28.057Z,7.04
2019-03-24T02:18:28.044Z,7.01
2019-03-24T02:19:28.039Z,7.00
2019-03-24T02:20:28.093Z,7.00
2019-03-24T02:21:28.011Z,7.01
2019-03-24T02:22:28.000Z,7.04
2019-03-24T02:23:27.990Z,7.03
2019-03-24T02:24:28.001Z,7.00
2019-03-24T02:25:27.980Z,7.00
2019-03-24T02:26:27.992Z,7.01
2019-03-24T02:27:27.943Z,6.99
2019-03-24T02:28:27.942Z,7.01
2019-03-24T02:29:27.924Z,7.07
2019-03-24T02:30:27.913Z,6.93
2019-03-24T02:31:27.923Z,6.96
2019-03-24T02:32:27.933Z,7.00
2019-03-24T02:33:27.881Z,6.99
2019-03-24T02:34:27.872Z,7.03
2019-03-24T02:35:27.856Z,6.97
2019-03-24T02:36:27.846Z,6.97
2019-03-24T02:37:27.854Z,6.99
2019-03-24T02:38:27.869Z,7.00
2019-03-24T02:39:27.813Z,7.00
2019-03-24T02:40:27.801Z,7.04
2019-03-24T02:41:27.790Z,6.97
2019-03-24T02:42:27.781Z,7.00
2019-03-24T02:43:27.789Z,7.03
2019-03-24T02:44:27.810Z,6.96
2019-03-24T02:45:27.751Z,6.93
2019-03-24T02:46:27.735Z,7.06
2019-03-24T02:47:27.729Z,6.92
2019-03-24T02:48:27.715Z,7.01
2019-03-24T02:49:27.719Z,6.99
2019-03-24T02:50:27.726Z,7.03
2019-03-24T02:51:27.686Z,7.03
2019-03-24T02:52:27.670Z,7.06
2019-03-24T02:53:27.658Z,7.04
2019-03-24T02:54:27.648Z,7.00
2019-03-24T02:55:27.647Z,6.99
2019-03-24T02:56:27.677Z,7.06
2019-03-24T02:57:27.616Z,7.04
2019-03-24T02:58:27.611Z,7.03
2019-03-24T02:59:27.592Z,7.03
2019-03-24T03:00:27.598Z,7.04
2019-03-24T03:01:27.596Z,7.01
2019-03-24T03:02:27.754Z,6.99
2019-03-24T03:03:27.547Z,7.04
2019-03-24T03:04:27.537Z,7.04
2019-03-24T03:05:27.526Z,7.01
2019-03-24T03:06:27.529Z,7.08
2019-03-24T03:07:27.527Z,7.13
2019-03-24T03:08:27.536Z,7.07
2019-03-24T03:09:27.484Z,7.13
2019-03-24T03:10:27.473Z,7.11
2019-03-24T03:11:27.462Z,7.11
2019-03-24T03:12:27.458Z,7.08
2019-03-24T03:13:27.455Z,7.08
2019-03-24T03:14:27.620Z,7.08
2019-03-24T03:15:27.417Z,7.00
2019-03-24T03:16:37.982Z,7.07
2019-03-24T03:17:28.394Z,7.08
2019-03-24T03:18:27.384Z,7.11
2019-03-24T03:19:27.396Z,7.00
2019-03-24T03:20:27.550Z,6.99
2019-03-24T03:21:27.350Z,7.03
2019-03-24T03:22:27.341Z,7.03
2019-03-24T03:23:27.330Z,7.00
2019-03-24T03:24:27.327Z,7.08
2019-03-24T03:25:27.307Z,6.96
2019-03-24T03:26:27.341Z,7.08
2019-03-24T03:27:27.283Z,7.07
2019-03-24T03:28:27.277Z,7.13
2019-03-24T03:29:27.263Z,7.08
2019-03-24T03:30:27.287Z,7.10
2019-03-24T03:31:27.293Z,7.11
2019-03-24T03:32:27.331Z,7.15
2019-03-24T03:33:27.225Z,7.11
2019-03-24T03:34:27.231Z,7.13
2019-03-24T03:35:27.209Z,7.15
2019-03-24T03:36:27.203Z,7.13
2019-03-24T03:37:27.182Z,7.16
2019-03-24T03:38:27.206Z,7.22
2019-03-24T03:39:27.160Z,7.19
2019-03-24T03:40:27.144Z,7.19
2019-03-24T03:41:27.157Z,7.26
2019-03-24T03:42:27.123Z,7.21
2019-03-24T03:43:27.111Z,7.31
2019-03-24T03:44:27.283Z,7.19
2019-03-24T03:45:27.095Z,7.21
2019-03-24T03:46:27.077Z,7.28
2019-03-24T03:47:27.065Z,7.25
2019-03-24T03:48:27.062Z,7.26
2019-03-24T03:49:27.042Z,7.25
2019-03-24T03:50:27.078Z,7.22
2019-03-24T03:51:27.022Z,7.24
2019-03-24T03:52:27.023Z,7.28
2019-03-24T03:53:26.998Z,7.26
2019-03-24T03:54:26.992Z,7.37
2019-03-24T03:55:26.977Z,7.33
2019-03-24T03:56:27.013Z,7.28
2019-03-24T03:57:26.969Z,7.28
2019-03-24T03:58:26.953Z,7.36
2019-03-24T03:59:26.935Z,7.39
2019-03-24T04:00:26.922Z,7.43
2019-03-24T04:01:26.932Z,7.43
2019-03-24T04:02:26.962Z,7.46
2019-03-24T04:03:26.889Z,7.44
2019-03-24T04:04:26.878Z,7.44
2019-03-24T04:05:26.869Z,7.49
2019-03-24T04:06:26.854Z,7.50
2019-03-24T04:07:26.846Z,7.50
2019-03-24T04:08:26.905Z,7.43
2019-03-24T04:09:26.823Z,7.50
2019-03-24T04:10:26.812Z,7.47
2019-03-24T04:11:26.807Z,7.46
2019-03-24T04:12:26.791Z,7.50
2019-03-24T04:13:26.778Z,7.49
2019-03-24T04:14:26.833Z,7.46
2019-03-24T04:15:26.759Z,7.52
2019-03-24T04:16:26.746Z,7.52
2019-03-24T04:17:26.735Z,7.50
2019-03-24T04:18:26.725Z,7.49
2019-03-24T04:19:26.715Z,7.47
2019-03-24T04:20:26.743Z,7.55
2019-03-24T04:21:26.689Z,7.50
2019-03-24T04:22:26.682Z,7.50
2019-03-24T04:23:26.669Z,7.54
2019-03-24T04:24:26.659Z,7.61
2019-03-24T04:25:26.665Z,7.55
2019-03-24T04:26:26.681Z,7.60
2019-03-24T04:27:26.635Z,7.55
2019-03-24T04:28:26.614Z,7.57
2019-03-24T04:29:26.610Z,7.55
2019-03-24T04:30:26.589Z,7.58
2019-03-24T04:31:26.578Z,7.57
2019-03-24T04:32:26.625Z,7.60
2019-03-24T04:33:26.562Z,7.60
2019-03-24T04:34:26.545Z,7.62
2019-03-24T04:35:26.537Z,7.58
2019-03-24T04:36:26.524Z,7.57
2019-03-24T04:37:26.514Z,7.57
2019-03-24T04:38:26.562Z,7.55
2019-03-24T04:39:26.497Z,7.62
2019-03-24T04:40:26.483Z,7.57
2019-03-24T04:41:26.470Z,7.54
2019-03-24T04:42:26.475Z,7.52
2019-03-24T04:43:26.450Z,7.60
2019-03-24T04:44:26.479Z,7.60
2019-03-24T04:45:26.447Z,7.57
2019-03-24T04:46:26.414Z,7.58
2019-03-24T04:47:26.402Z,7.55
2019-03-24T04:48:26.393Z,7.54
2019-03-24T04:49:26.384Z,7.54
2019-03-24T04:50:26.436Z,7.55
2019-03-24T04:51:26.357Z,7.57
2019-03-24T04:52:26.348Z,7.60
2019-03-24T04:53:26.338Z,7.55
2019-03-24T04:54:26.333Z,7.58
2019-03-24T04:55:26.315Z,7.52
2019-03-24T04:56:26.345Z,7.62
2019-03-24T04:57:26.322Z,7.58
2019-03-24T04:58:26.282Z,7.60
2019-03-24T04:59:26.275Z,7.58
2019-03-24T05:00:26.260Z,7.55
2019-03-24T05:01:26.251Z,7.60
2019-03-24T05:02:26.308Z,7.64
2019-03-24T05:03:26.230Z,7.52
2019-03-24T05:04:26.215Z,7.55
2019-03-24T05:05:26.209Z,7.44
2019-03-24T05:06:26.194Z,7.57
2019-03-24T05:07:26.183Z,7.57
2019-03-24T05:08:26.222Z,7.60
2019-03-24T05:09:26.162Z,7.55
2019-03-24T05:10:26.151Z,7.54
2019-03-24T05:11:26.139Z,7.54
2019-03-24T05:12:26.132Z,7.58
2019-03-24T05:13:26.158Z,7.50
2019-03-24T05:14:26.150Z,7.49
2019-03-24T05:15:26.100Z,7.55
2019-03-24T05:16:26.085Z,7.55
2019-03-24T05:17:27.197Z,7.47
2019-03-24T05:18:26.062Z,7.50
2019-03-24T05:19:26.054Z,7.50
2019-03-24T05:20:26.135Z,7.43
2019-03-24T05:21:26.029Z,7.50
2019-03-24T05:22:26.022Z,7.43
2019-03-24T05:23:26.017Z,7.49
2019-03-24T05:24:25.998Z,7.50
2019-03-24T05:25:25.989Z,7.49
2019-03-24T05:26:26.058Z,7.46
2019-03-24T05:27:25.962Z,7.46
2019-03-24T05:28:25.951Z,7.47
2019-03-24T05:29:25.946Z,7.52
2019-03-24T05:30:25.932Z,7.49
2019-03-24T05:31:25.918Z,7.52
2019-03-24T05:32:25.952Z,7.46
2019-03-24T05:33:25.897Z,7.43
2019-03-24T05:34:25.894Z,7.49
2019-03-24T05:35:25.882Z,7.49
2019-03-24T05:36:25.898Z,7.52
2019-03-24T05:37:25.854Z,7.57
2019-03-24T05:38:25.914Z,7.50
2019-03-24T05:39:25.830Z,7.61
2019-03-24T05:40:25.822Z,7.54
2019-03-24T05:41:25.807Z,7.57
2019-03-24T05:42:25.801Z,7.61
2019-03-24T05:43:25.792Z,7.55
2019-03-24T05:44:25.996Z,7.55
2019-03-24T05:45:25.766Z,7.52
2019-03-24T05:46:25.756Z,7.43
2019-03-24T05:47:25.748Z,7.60
2019-03-24T05:48:25.756Z,7.58
2019-03-24T05:49:25.721Z,7.55
2019-03-24T05:50:25.780Z,7.57
2019-03-24T05:51:25.700Z,7.55
2019-03-24T05:52:27.606Z,7.61
2019-03-24T05:53:25.677Z,7.57
2019-03-24T05:54:25.664Z,7.52
2019-03-24T05:55:25.657Z,7.55
2019-03-24T05:56:25.718Z,7.55
2019-03-24T05:57:25.633Z,7.58
2019-03-24T05:58:25.625Z,7.62
2019-03-24T05:59:25.617Z,7.55
2019-03-24T06:00:25.599Z,7.62
2019-03-24T06:01:25.589Z,7.58
2019-03-24T06:02:25.784Z,7.64
2019-03-24T06:03:25.571Z,7.62
2019-03-24T06:04:25.557Z,7.64
2019-03-24T06:05:25.542Z,7.64
2019-03-24T06:06:25.536Z,7.60
2019-03-24T06:07:25.521Z,7.64
2019-03-24T06:08:25.588Z,7.62
2019-03-24T06:09:25.501Z,7.61
2019-03-24T06:10:25.490Z,7.60
2019-03-24T06:11:25.480Z,7.64
2019-03-24T06:12:25.474Z,7.68
2019-03-24T06:13:25.456Z,7.68
2019-03-24T06:14:25.489Z,7.73
2019-03-24T06:15:25.435Z,7.57
2019-03-24T06:16:25.421Z,7.73
2019-03-24T06:17:25.411Z,7.62
2019-03-24T06:18:25.404Z,7.64
2019-03-24T06:19:25.389Z,7.66
2019-03-24T06:20:25.454Z,7.64
2019-03-24T06:21:25.365Z,7.71
2019-03-24T06:22:25.358Z,7.74
2019-03-24T06:23:25.347Z,7.80
2019-03-24T06:24:25.332Z,7.76
2019-03-24T06:25:25.323Z,7.71
2019-03-24T06:26:25.366Z,7.76
2019-03-24T06:27:25.304Z,7.73
2019-03-24T06:28:25.293Z,7.80
2019-03-24T06:29:25.301Z,7.80
2019-03-24T06:30:25.271Z,7.74
2019-03-24T06:31:25.258Z,7.81
2019-03-24T06:32:25.297Z,7.87
2019-03-24T06:33:25.237Z,7.86
2019-03-24T06:34:25.224Z,7.87
2019-03-24T06:35:25.212Z,7.91
2019-03-24T06:36:25.201Z,7.84
2019-03-24T06:37:25.201Z,7.81
2019-03-24T06:38:25.229Z,7.84
2019-03-24T06:39:25.169Z,7.83
2019-03-24T06:40:25.156Z,7.95
2019-03-24T06:41:25.147Z,7.86
2019-03-24T06:42:25.136Z,7.91
2019-03-24T06:43:25.126Z,7.87
2019-03-24T06:44:25.173Z,7.91
2019-03-24T06:45:28.747Z,7.94
2019-03-24T06:46:25.091Z,7.91
2019-03-24T06:47:25.079Z,7.96
2019-03-24T06:48:25.074Z,7.95
2019-03-24T06:49:25.058Z,7.86
2019-03-24T06:50:25.120Z,7.83
2019-03-24T06:51:26.060Z,7.80
2019-03-24T06:52:25.024Z,7.83
2019-03-24T06:53:25.017Z,7.87
2019-03-24T06:54:25.002Z,7.80
2019-03-24T06:55:24.992Z,7.81
2019-03-24T06:56:25.033Z,7.87
2019-03-24T06:57:24.975Z,7.87
2019-03-24T06:58:24.962Z,7.88
2019-03-24T06:59:24.952Z,7.83
2019-03-24T07:00:24.939Z,7.83
2019-03-24T07:01:24.930Z,7.84
2019-03-24T07:02:24.958Z,7.83
2019-03-24T07:03:24.912Z,7.86
2019-03-24T07:04:24.901Z,7.88
2019-03-24T07:05:24.906Z,7.84
2019-03-24T07:06:24.893Z,7.91
2019-03-24T07:07:24.870Z,7.87
2019-03-24T07:08:24.892Z,7.87
2019-03-24T07:09:24.859Z,7.91
2019-03-24T07:10:24.863Z,7.91
2019-03-24T07:11:24.817Z,7.92
2019-03-24T07:12:24.823Z,7.92
2019-03-24T07:13:24.798Z,7.80
2019-03-24T07:14:24.839Z,7.91
2019-03-24T07:15:24.815Z,7.77
2019-03-24T07:16:24.814Z,7.84
2019-03-24T07:17:24.747Z,7.86
2019-03-24T07:18:24.738Z,7.81
2019-03-24T07:19:24.730Z,7.86
2019-03-24T07:20:24.805Z,7.78
2019-03-24T07:21:24.708Z,7.84
2019-03-24T07:22:24.709Z,7.80
2019-03-24T07:23:24.688Z,7.83
2019-03-24T07:24:24.681Z,7.81
2019-03-24T07:25:24.687Z,7.87
2019-03-24T07:26:24.713Z,7.83
2019-03-24T07:27:24.656Z,7.78
2019-03-24T07:28:25.012Z,7.86
2019-03-24T07:29:24.632Z,7.76
2019-03-24T07:30:24.624Z,7.77
2019-03-24T07:31:24.604Z,7.73
2019-03-24T07:32:24.625Z,7.78
2019-03-24T07:33:24.581Z,7.77
2019-03-24T07:34:24.563Z,7.83
2019-03-24T07:35:24.553Z,7.74
2019-03-24T07:36:24.542Z,7.80
2019-03-24T07:37:24.545Z,7.83
2019-03-24T07:38:24.579Z,7.84
2019-03-24T07:39:24.506Z,7.86
2019-03-24T07:40:24.497Z,7.88
2019-03-24T07:41:24.484Z,7.84
2019-03-24T07:42:24.480Z,7.94
2019-03-24T07:43:24.464Z,7.87
2019-03-24T07:44:24.542Z,7.91
2019-03-24T07:45:24.441Z,7.81
2019-03-24T07:46:24.432Z,7.87
2019-03-24T07:47:24.426Z,7.87
2019-03-24T07:48:24.416Z,7.83
2019-03-24T07:49:24.416Z,7.86
2019-03-24T07:50:24.419Z,7.84
2019-03-24T07:51:24.381Z,7.74
2019-03-24T07:52:24.368Z,7.74
2019-03-24T07:53:24.350Z,7.77
2019-03-24T07:54:24.357Z,7.74
2019-03-24T07:55:24.339Z,7.76
2019-03-24T07:56:24.370Z,7.80
2019-03-24T07:57:24.307Z,7.71
2019-03-24T07:58:24.295Z,7.78
2019-03-24T07:59:24.303Z,7.81
2019-03-24T08:00:24.482Z,7.74
2019-03-24T08:01:24.274Z,7.73
2019-03-24T08:02:24.301Z,7.86
2019-03-24T08:03:24.249Z,7.84
2019-03-24T08:04:24.233Z,7.84
2019-03-24T08:05:24.226Z,7.87
2019-03-24T08:06:24.224Z,7.86
2019-03-24T08:07:24.225Z,7.84
2019-03-24T08:08:24.220Z,7.88
2019-03-24T08:09:24.174Z,7.91
2019-03-24T08:10:24.180Z,7.98
2019-03-24T08:11:24.179Z,7.91
2019-03-24T08:12:24.140Z,7.88
2019-03-24T08:13:24.145Z,7.95
2019-03-24T08:14:24.173Z,7.95
2019-03-24T08:15:24.126Z,8.01
2019-03-24T08:16:24.095Z,7.86
2019-03-24T08:17:24.088Z,7.96
2019-03-24T08:18:30.000Z,7.95
2019-03-24T08:19:25.096Z,7.98
2019-03-24T08:20:24.058Z,7.99
2019-03-24T08:21:24.072Z,8.01
2019-03-24T08:22:24.029Z,8.05
2019-03-24T08:23:24.021Z,7.98
2019-03-24T08:24:24.007Z,8.05
2019-03-24T08:25:24.024Z,8.04
2019-03-24T08:26:23.983Z,7.96
2019-03-24T08:27:23.982Z,7.96
2019-03-24T08:28:24.011Z,8.04
2019-03-24T08:29:23.957Z,7.92
2019-03-24T08:30:23.968Z,7.95
2019-03-24T08:31:23.975Z,7.98
2019-03-24T08:32:23.916Z,8.01
2019-03-24T08:33:23.920Z,7.95
2019-03-24T08:34:23.903Z,7.99
2019-03-24T08:35:23.886Z,7.95
2019-03-24T08:36:23.946Z,7.99
2019-03-24T08:37:23.919Z,7.96
2019-03-24T08:38:23.851Z,8.01
2019-03-24T08:39:23.845Z,8.02
2019-03-24T08:40:23.882Z,7.95
2019-03-24T08:41:23.823Z,8.09
2019-03-24T08:42:23.834Z,7.94
2019-03-24T08:43:23.848Z,8.02
2019-03-24T08:44:23.784Z,8.05
2019-03-24T08:45:23.792Z,7.98
2019-03-24T08:46:23.766Z,8.01
2019-03-24T08:47:23.762Z,8.06
2019-03-24T08:48:23.767Z,8.05
2019-03-24T08:49:23.764Z,8.06
2019-03-24T08:50:23.723Z,7.95
2019-03-24T08:51:23.729Z,8.04
2019-03-24T08:52:23.699Z,7.95
2019-03-24T08:53:23.689Z,8.04
2019-03-24T08:54:23.702Z,7.99
2019-03-24T08:55:23.715Z,7.96
2019-03-24T08:56:23.654Z,7.99
2019-03-24T08:57:23.644Z,8.02
2019-03-24T08:58:23.642Z,8.19
2019-03-24T08:59:23.625Z,8.16
2019-03-24T09:00:30.660Z,8.23
2019-03-24T09:01:24.833Z,8.23
2019-03-24T09:02:23.705Z,8.21
2019-03-24T09:03:23.577Z,8.32
2019-03-24T09:04:23.564Z,8.31
2019-03-24T09:05:23.572Z,8.32
2019-03-24T09:06:23.541Z,8.42
2019-03-24T09:07:23.569Z,8.55
2019-03-24T09:08:23.530Z,8.53
2019-03-24T09:09:23.594Z,8.49
2019-03-24T09:10:23.498Z,8.59
2019-03-24T09:11:31.239Z,8.65
2019-03-24T09:12:24.501Z,8.67
2019-03-24T09:13:23.470Z,8.85
2019-03-24T09:14:23.450Z,8.88
2019-03-24T09:15:23.440Z,8.78
2019-03-24T09:16:23.428Z,8.67
2019-03-24T09:17:23.430Z,8.83
2019-03-24T09:18:23.439Z,8.68
2019-03-24T09:19:23.411Z,8.71
2019-03-24T09:20:23.385Z,8.74
2019-03-24T09:21:23.381Z,8.72
2019-03-24T09:22:23.379Z,8.74
2019-03-24T09:23:23.418Z,8.60
2019-03-24T09:24:23.392Z,8.57
2019-03-24T09:25:23.580Z,8.65
2019-03-24T09:26:23.326Z,8.67
2019-03-24T09:27:23.304Z,8.67
2019-03-24T09:28:23.305Z,8.80
2019-03-24T09:29:23.369Z,8.80
2019-03-24T09:30:23.303Z,8.74
2019-03-24T09:31:23.267Z,8.71
2019-03-24T09:32:23.288Z,8.68
2019-03-24T09:33:23.248Z,8.68
2019-03-24T09:34:23.234Z,8.62
2019-03-24T09:35:23.226Z,8.65
2019-03-24T09:36:23.263Z,8.56
2019-03-24T09:37:23.211Z,8.53
2019-03-24T09:38:23.190Z,8.50
2019-03-24T09:39:23.191Z,8.42
2019-03-24T09:40:23.161Z,8.37
2019-03-24T09:41:23.153Z,8.38
2019-03-24T09:42:23.219Z,8.52
2019-03-24T09:43:23.127Z,8.47
2019-03-24T09:44:23.119Z,8.52
2019-03-24T09:45:23.111Z,8.56
2019-03-24T09:46:23.092Z,8.57
2019-03-24T09:47:23.094Z,8.50
2019-03-24T09:48:23.120Z,8.46
2019-03-24T09:49:23.059Z,8.38
2019-03-24T09:50:23.048Z,8.44
2019-03-24T09:51:23.040Z,8.55
2019-03-24T09:52:23.024Z,8.50
2019-03-24T09:53:23.021Z,8.38
2019-03-24T09:54:23.048Z,8.41
2019-03-24T09:55:22.989Z,8.35
2019-03-24T09:56:22.986Z,8.47
2019-03-24T09:57:22.972Z,8.41
2019-03-24T09:58:22.959Z,8.46
2019-03-24T09:59:22.951Z,8.42
2019-03-24T10:00:23.131Z,8.26
2019-03-24T10:01:22.971Z,8.39
2019-03-24T10:02:22.917Z,8.37
2019-03-24T10:03:22.900Z,8.35
2019-03-24T10:04:22.951Z,8.37
2019-03-24T10:05:22.878Z,8.31
2019-03-24T10:06:22.909Z,8.23
2019-03-24T10:07:22.857Z,8.21
2019-03-24T10:08:22.845Z,8.29
2019-03-24T10:09:22.880Z,8.26
2019-03-24T10:10:22.826Z,8.24
2019-03-24T10:11:22.812Z,8.21
2019-03-24T10:12:22.838Z,8.28
2019-03-24T10:13:22.796Z,8.17
2019-03-24T10:14:22.783Z,8.26
2019-03-24T10:15:22.792Z,8.16
2019-03-24T10:16:22.758Z,8.10
2019-03-24T10:17:22.751Z,8.19
2019-03-24T10:18:22.783Z,8.16
2019-03-24T10:19:22.733Z,8.14
2019-03-24T10:20:22.712Z,8.29
2019-03-24T10:21:22.767Z,8.29
2019-03-24T10:22:22.693Z,8.38
2019-03-24T10:23:22.679Z,8.39
2019-03-24T10:24:22.731Z,8.38
2019-03-24T10:25:22.663Z,8.34
2019-03-24T10:26:22.646Z,8.31
2019-03-24T10:27:22.657Z,8.26
2019-03-24T10:28:22.639Z,8.44
2019-03-24T10:29:22.616Z,8.41
2019-03-24T10:30:22.659Z,8.37
2019-03-24T10:31:22.688Z,8.39
2019-03-24T10:32:22.606Z,8.42
2019-03-24T10:33:22.576Z,8.41
2019-03-24T10:34:22.557Z,8.32
2019-03-24T10:35:22.551Z,8.35
2019-03-24T10:36:22.615Z,8.32
2019-03-24T10:37:22.526Z,8.20
2019-03-24T10:38:22.518Z,8.31
2019-03-24T10:39:22.499Z,8.19
2019-03-24T10:40:28.603Z,8.23
2019-03-24T10:41:23.517Z,8.28
2019-03-24T10:42:22.473Z,8.34
2019-03-24T10:43:22.455Z,8.32
2019-03-24T10:44:22.445Z,8.29
2019-03-24T10:45:22.497Z,8.35
2019-03-24T10:46:22.422Z,8.34
2019-03-24T10:47:22.449Z,8.37
2019-03-24T10:48:33.145Z,8.46
2019-03-24T10:49:25.051Z,8.29
2019-03-24T10:50:22.377Z,8.41
2019-03-24T10:51:22.387Z,8.44
2019-03-24T10:52:22.364Z,8.42
2019-03-24T10:53:22.379Z,8.53
2019-03-24T10:54:22.335Z,8.56
2019-03-24T10:55:22.327Z,8.50
2019-03-24T10:56:22.325Z,8.52
2019-03-24T10:57:22.298Z,8.56
2019-03-24T10:58:22.290Z,8.56
2019-03-24T10:59:22.325Z,8.53
2019-03-24T11:00:22.266Z,8.57
2019-03-24T11:01:22.259Z,8.62
2019-03-24T11:02:22.284Z,8.63
2019-03-24T11:03:22.253Z,8.77
2019-03-24T11:04:22.226Z,8.75
2019-03-24T11:05:22.254Z,8.85
2019-03-24T11:06:22.201Z,8.80
2019-03-24T11:07:22.238Z,8.95
2019-03-24T11:08:22.183Z,8.95
2019-03-24T11:09:22.170Z,9.03
2019-03-24T11:10:22.196Z,8.99
2019-03-24T11:11:22.450Z,9.11
2019-03-24T11:12:22.168Z,9.08
2019-03-24T11:13:22.152Z,9.18
2019-03-24T11:14:22.140Z,9.29
2019-03-24T11:15:22.099Z,9.50
2019-03-24T11:16:22.107Z,9.50
2019-03-24T11:17:22.124Z,9.52
2019-03-24T11:18:22.092Z,9.59
2019-03-24T11:19:22.064Z,9.59
2019-03-24T11:20:22.054Z,9.55
2019-03-24T11:21:22.080Z,9.62
2019-03-24T11:22:22.061Z,9.67
2019-03-24T11:23:22.069Z,9.78
2019-03-24T11:24:22.029Z,9.90
2019-03-24T11:25:22.000Z,9.94
2019-03-24T11:26:21.984Z,9.94
2019-03-24T11:27:21.976Z,9.96
2019-03-24T11:28:21.962Z,10.01
2019-03-24T11:29:21.979Z,10.03
2019-03-24T11:30:21.945Z,10.05
2019-03-24T11:31:21.923Z,10.01
2019-03-24T11:32:21.913Z,10.12
2019-03-24T11:33:21.946Z,10.30
2019-03-24T11:34:21.888Z,10.38
2019-03-24T11:35:21.915Z,10.49
2019-03-24T11:36:21.866Z,10.55
2019-03-24T11:37:21.876Z,10.62
2019-03-24T11:38:21.853Z,10.75
2019-03-24T11:39:21.874Z,10.82
2019-03-24T11:40:21.820Z,10.95
2019-03-24T11:41:21.843Z,11.11
2019-03-24T11:42:21.799Z,11.13
2019-03-24T11:43:21.799Z,11.20
2019-03-24T11:44:21.782Z,11.38
2019-03-24T11:45:21.843Z,11.49
2019-03-24T11:46:21.779Z,11.52
2019-03-24T11:47:26.629Z,11.73
2019-03-24T11:48:22.744Z,11.91
2019-03-24T11:49:21.740Z,11.88
2019-03-24T11:50:21.721Z,11.70
2019-03-24T11:51:21.742Z,11.74
2019-03-24T11:52:21.685Z,11.95
2019-03-24T11:53:21.733Z,12.10
2019-03-24T11:54:21.664Z,11.97
2019-03-24T11:55:21.654Z,12.21
2019-03-24T11:56:21.640Z,12.15
2019-03-24T11:57:21.630Z,12.41
2019-03-24T11:58:21.620Z,12.38
2019-03-24T11:59:21.659Z,12.33
2019-03-24T12:00:21.601Z,12.25
2019-03-24T12:01:21.589Z,12.18
2019-03-24T12:02:21.576Z,12.23
2019-03-24T12:03:21.563Z,12.43
2019-03-24T12:04:21.552Z,12.46
2019-03-24T12:05:21.599Z,12.33
2019-03-24T12:06:21.557Z,12.28
2019-03-24T12:07:21.527Z,12.17
2019-03-24T12:08:21.522Z,12.23
2019-03-24T12:09:21.521Z,12.10
2019-03-24T12:10:21.493Z,11.99
2019-03-24T12:11:21.526Z,12.07
2019-03-24T12:12:21.493Z,12.15
2019-03-24T12:13:21.455Z,12.22
2019-03-24T12:14:21.475Z,12.08
2019-03-24T12:15:21.434Z,12.11
2019-03-24T12:16:21.431Z,12.38
2019-03-24T12:17:21.457Z,12.44
2019-03-24T12:18:21.409Z,12.53
2019-03-24T12:19:21.443Z,12.63
2019-03-24T12:20:21.390Z,12.98
2019-03-24T12:21:21.469Z,13.04
2019-03-24T12:22:21.358Z,13.27
2019-03-24T12:23:21.458Z,13.51
2019-03-24T12:24:21.335Z,13.63
2019-03-24T12:25:21.332Z,13.68
2019-03-24T12:26:21.311Z,13.88
2019-03-24T12:27:21.364Z,14.16
2019-03-24T12:28:21.291Z,14.41
2019-03-24T12:29:21.359Z,14.58
2019-03-24T12:30:21.283Z,15.04
2019-03-24T12:31:21.259Z,15.32
2019-03-24T12:32:21.255Z,15.29
2019-03-24T12:33:21.313Z,15.23
2019-03-24T12:34:22.279Z,15.35
2019-03-24T12:35:21.226Z,14.46
2019-03-24T12:36:21.219Z,14.01
2019-03-24T12:37:21.198Z,14.22
2019-03-24T12:38:21.231Z,14.70
2019-03-24T12:39:21.178Z,15.10
2019-03-24T12:40:21.199Z,15.08
2019-03-24T12:41:21.162Z,15.17
2019-03-24T12:42:21.459Z,15.01
2019-03-24T12:43:21.128Z,15.26
2019-03-24T12:44:21.168Z,15.45
2019-03-24T12:45:21.116Z,15.12
2019-03-24T12:46:21.130Z,15.62
2019-03-24T12:47:21.075Z,15.98
2019-03-24T12:48:21.157Z,16.14
2019-03-24T12:49:21.185Z,16.18
2019-03-24T12:50:31.035Z,15.65
2019-03-24T12:51:22.105Z,15.77
2019-03-24T12:52:21.021Z,15.58
2019-03-24T12:53:21.042Z,15.30
2019-03-24T12:54:21.001Z,15.23
2019-03-24T12:55:21.006Z,15.25
2019-03-24T12:56:20.974Z,15.32
2019-03-24T12:57:21.001Z,15.60
2019-03-24T12:58:21.072Z,15.95
2019-03-24T12:59:20.969Z,15.91
2019-03-24T13:00:20.929Z,16.21
2019-03-24T13:01:20.927Z,16.42
2019-03-24T13:02:20.979Z,15.95
2019-03-24T13:03:20.924Z,15.32
2019-03-24T13:04:20.893Z,15.73
2019-03-24T13:05:20.877Z,15.65
2019-03-24T13:06:20.866Z,15.11
2019-03-24T13:07:20.866Z,14.64
2019-03-24T13:08:20.860Z,14.64
2019-03-24T13:09:20.901Z,14.40
2019-03-24T13:10:20.824Z,14.36
2019-03-24T13:11:20.879Z,14.04
2019-03-24T13:12:20.819Z,13.63
2019-03-24T13:13:20.802Z,14.31
2019-03-24T13:14:20.787Z,14.83